createdAt,value
2022-12-08T00:00:34.126Z,3.00
2022-12-08T00:04:14.998Z,2.40
2022-12-08T00:08:06.235Z,3.05
2022-12-08T00:11:39.489Z,3.55
2022-12-08T00:15:11.478Z,6.53
2022-12-08T00:18:43.130Z,4.63
2022-12-08T00:22:15.339Z,7.22
2022-12-08T00:25:47.170Z,2.13
2022-12-08T00:29:19.702Z,3.55
2022-12-08T00:32:51.519Z,2.20
2022-12-08T00:36:24.232Z,3.33
2022-12-08T00:39:55.913Z,8.57
2022-12-08T00:43:27.929Z,6.88
2022-12-08T00:46:59.979Z,2.70
2022-12-08T00:50:32.276Z,4.13
2022-12-08T00:54:05.353Z,4.10
2022-12-08T00:57:37.670Z,4.25
2022-12-08T01:01:14.220Z,4.67
2022-12-08T01:04:46.367Z,3.88
2022-12-08T01:08:18.086Z,8.02
2022-12-08T01:11:50.542Z,3.13
2022-12-08T01:15:23.125Z,3.53
2022-12-08T01:18:56.400Z,5.25
2022-12-08T01:22:28.283Z,5.13
2022-12-08T01:26:04.343Z,4.30
2022-12-08T01:29:36.044Z,11.10
2022-12-08T01:33:08.771Z,4.47
2022-12-08T01:36:41.086Z,6.60
2022-12-08T01:40:13.116Z,6.70
2022-12-08T01:44:09.343Z,2.97
2022-12-08T01:47:45.244Z,5.47
2022-12-08T01:51:17.597Z,1.73
2022-12-08T01:54:53.677Z,4.78
2022-12-08T01:58:30.158Z,3.00
2022-12-08T02:02:02.416Z,6.87
2022-12-08T02:05:37.202Z,5.38
2022-12-08T02:09:09.725Z,4.03
2022-12-08T02:12:41.430Z,4.97
2022-12-08T02:16:38.672Z,6.82
2022-12-08T02:20:23.524Z,6.10
2022-12-08T02:24:24.893Z,3.15
2022-12-08T02:28:14.560Z,6.00
2022-12-08T02:32:01.480Z,4.63
2022-12-08T02:35:56.691Z,6.00
2022-12-08T02:39:57.135Z,14.77
2022-12-08T02:43:50.990Z,6.07
2022-12-08T02:47:25.650Z,4.90
2022-12-08T02:50:57.334Z,3.60
2022-12-08T02:54:29.386Z,6.18
2022-12-08T02:58:19.189Z,6.78
2022-12-08T03:02:09.396Z,9.57
2022-12-08T03:05:46.977Z,13.40
2022-12-08T03:09:34.112Z,4.90
2022-12-08T03:13:17.384Z,6.40
2022-12-08T03:16:55.149Z,9.20
2022-12-08T03:20:30.275Z,6.10
2022-12-08T03:24:06.204Z,3.22
2022-12-08T03:27:37.931Z,7.73
2022-12-08T03:31:13.347Z,5.68
2022-12-08T03:34:48.136Z,9.52
2022-12-08T03:38:20.381Z,6.50
2022-12-08T03:41:52.199Z,10.90
2022-12-08T03:45:24.466Z,12.10
2022-12-08T03:48:56.917Z,10.07
2022-12-08T03:52:28.814Z,10.70
2022-12-08T03:56:00.497Z,7.72
2022-12-08T03:59:32.672Z,14.73
2022-12-08T04:03:04.667Z,7.97
2022-12-08T04:06:36.885Z,10.05
2022-12-08T04:10:09.377Z,13.27
2022-12-08T04:13:42.230Z,13.13
2022-12-08T04:17:14.026Z,18.27
2022-12-08T04:20:46.368Z,11.07
2022-12-08T04:24:18.098Z,14.95
2022-12-08T04:27:50.154Z,17.73
2022-12-08T04:31:21.943Z,17.30
2022-12-08T04:34:54.070Z,21.90
2022-12-08T04:38:26.181Z,12.77
2022-12-08T04:41:58.207Z,14.90
2022-12-08T04:45:29.975Z,13.98
2022-12-08T04:49:02.136Z,14.85
2022-12-08T04:52:34.811Z,9.20
2022-12-08T04:56:12.273Z,11.93
2022-12-08T04:59:49.632Z,14.27
2022-12-08T05:03:28.288Z,17.40
2022-12-08T05:07:00.797Z,9.93
2022-12-08T05:10:33.368Z,16.02
2022-12-08T05:14:05.080Z,13.47
2022-12-08T05:17:37.158Z,11.20
2022-12-08T05:21:10.043Z,11.00
2022-12-08T05:24:47.199Z,21.85
2022-12-08T05:28:40.715Z,14.67
2022-12-08T05:32:11.835Z,14.57
2022-12-08T05:35:43.512Z,16.88
2022-12-08T05:39:15.733Z,20.60
2022-12-08T05:42:47.453Z,15.65
2022-12-08T05:46:19.570Z,16.20
2022-12-08T05:49:51.486Z,24.80
2022-12-08T05:53:23.623Z,22.65
2022-12-08T05:56:55.293Z,18.30
2022-12-08T06:00:27.410Z,23.63
2022-12-08T06:04:01.295Z,15.80
2022-12-08T06:07:33.423Z,23.77
2022-12-08T06:11:05.133Z,19.63
2022-12-08T06:14:40.285Z,15.33
2022-12-08T06:18:12.118Z,17.00
2022-12-08T06:21:44.204Z,19.65
2022-12-08T06:25:16.010Z,20.33
2022-12-08T06:28:49.413Z,18.23
2022-12-08T06:32:27.126Z,17.85
2022-12-08T06:35:59.748Z,16.98
2022-12-08T06:39:31.453Z,16.17
2022-12-08T06:43:03.617Z,16.58
2022-12-08T06:46:35.449Z,24.38
2022-12-08T06:50:08.224Z,15.17
2022-12-08T06:53:40.913Z,23.23
2022-12-08T06:57:13.145Z,22.00
2022-12-08T07:00:45.222Z,22.83
2022-12-08T07:04:17.859Z,22.30
2022-12-08T07:07:49.690Z,27.08
2022-12-08T07:11:22.799Z,23.13
2022-12-08T07:14:54.811Z,27.13
2022-12-08T07:18:27.121Z,21.65
2022-12-08T07:21:58.994Z,26.65
2022-12-08T07:25:32.087Z,25.00
2022-12-08T07:29:04.093Z,25.38
2022-12-08T07:32:38.352Z,21.48
2022-12-08T07:36:10.210Z,24.20
2022-12-08T07:39:43.078Z,22.20
2022-12-08T07:43:15.768Z,26.95
2022-12-08T07:46:47.724Z,26.98
2022-12-08T07:50:20.656Z,31.70
2022-12-08T07:53:54.439Z,17.17
2022-12-08T07:57:26.462Z,18.13
2022-12-08T08:00:58.859Z,22.40
2022-12-08T08:04:31.517Z,17.27
2022-12-08T08:08:04.957Z,23.25
2022-12-08T08:11:37.302Z,24.20
2022-12-08T08:15:10.320Z,29.02
2022-12-08T08:18:42.021Z,27.40
2022-12-08T08:22:14.010Z,21.50
2022-12-08T08:25:45.686Z,21.37
2022-12-08T08:29:17.994Z,14.13
2022-12-08T08:32:50.101Z,14.90
2022-12-08T08:36:22.557Z,18.57
2022-12-08T08:39:54.593Z,10.20
2022-12-08T08:43:34.371Z,22.42
2022-12-08T08:47:09.578Z,13.70
2022-12-08T08:50:41.816Z,7.53
2022-12-08T08:54:13.634Z,14.27
2022-12-08T08:57:45.964Z,12.00
2022-12-08T09:01:20.705Z,21.80
2022-12-08T09:04:54.146Z,16.13
2022-12-08T09:08:26.912Z,13.48
2022-12-08T09:11:59.179Z,27.20
2022-12-08T09:15:31.137Z,11.48
2022-12-08T09:19:03.619Z,18.02
2022-12-08T09:22:35.323Z,15.83
2022-12-08T09:26:08.632Z,13.63
2022-12-08T09:29:41.099Z,19.17
2022-12-08T09:33:13.131Z,15.85
2022-12-08T09:36:44.806Z,12.30
2022-12-08T09:40:20.485Z,18.85
2022-12-08T09:43:57.732Z,19.50
2022-12-08T09:47:37.858Z,11.87
2022-12-08T09:51:12.650Z,11.48
2022-12-08T09:54:45.303Z,18.95
2022-12-08T09:58:27.548Z,14.33
2022-12-08T10:02:01.297Z,16.45
2022-12-08T10:05:40.132Z,10.02
2022-12-08T10:09:43.342Z,18.40
2022-12-08T10:13:38.573Z,13.60
2022-12-08T10:17:23.738Z,11.63
2022-12-08T10:21:01.317Z,17.15
2022-12-08T10:24:43.728Z,14.47
2022-12-08T10:28:16.114Z,14.90
2022-12-08T10:31:48.902Z,13.93
2022-12-08T10:35:22.696Z,16.33
2022-12-08T10:38:55.723Z,15.02
2022-12-08T10:42:35.166Z,13.98
2022-12-08T10:46:23.116Z,15.45
2022-12-08T10:50:19.756Z,19.20
2022-12-08T10:53:51.814Z,11.77
2022-12-08T10:57:25.274Z,15.85
2022-12-08T11:01:01.898Z,8.90
2022-12-08T11:04:39.075Z,21.42
2022-12-08T11:08:11.733Z,17.08
2022-12-08T11:11:52.980Z,18.80
2022-12-08T11:15:36.327Z,20.33
2022-12-08T11:19:15.428Z,15.10
2022-12-08T11:22:56.679Z,18.67
2022-12-08T11:26:33.611Z,24.00
2022-12-08T11:30:22.084Z,19.70
2022-12-08T11:33:53.850Z,15.60
2022-12-08T11:37:35.217Z,23.37
2022-12-08T11:41:15.751Z,16.17
2022-12-08T11:44:58.246Z,23.10
2022-12-08T11:48:36.846Z,12.70
2022-12-08T11:52:19.508Z,20.92
2022-12-08T11:55:57.149Z,12.23
2022-12-08T11:59:44.616Z,15.73
2022-12-08T12:03:40.727Z,15.30
2022-12-08T12:07:37.286Z,14.90
2022-12-08T12:11:34.161Z,16.85
2022-12-08T12:15:31.162Z,17.13
2022-12-08T12:19:10.327Z,15.90
2022-12-08T12:22:43.952Z,16.50
2022-12-08T12:26:28.745Z,12.93
2022-12-08T12:30:05.304Z,14.13
2022-12-08T12:33:37.641Z,10.70
2022-12-08T12:37:18.493Z,12.98
2022-12-08T12:40:50.194Z,13.93
2022-12-08T12:44:29.819Z,15.43
2022-12-08T12:48:01.440Z,17.38
2022-12-08T12:51:45.813Z,13.70
2022-12-08T12:55:21.515Z,12.63
2022-12-08T12:58:54.212Z,15.18
2022-12-08T13:02:48.888Z,11.80
2022-12-08T13:06:35.863Z,15.57
2022-12-08T13:10:39.027Z,11.57
2022-12-08T13:14:27.031Z,11.80
2022-12-08T13:17:58.887Z,12.17
2022-12-08T13:21:36.763Z,15.95
2022-12-08T13:25:39.729Z,10.63
2022-12-08T13:29:24.079Z,9.33
2022-12-08T13:36:59.738Z,17.55
2022-12-08T13:40:34.380Z,15.37
2022-12-08T13:48:42.310Z,13.80
2022-12-08T13:53:41.921Z,11.88
2022-12-08T14:00:24.381Z,13.88
2022-12-08T14:04:30.959Z,18.45
2022-12-08T14:07:54.956Z,18.70
2022-12-08T14:11:47.963Z,13.73
2022-12-08T14:15:21.230Z,14.50
2022-12-08T14:18:52.976Z,17.77
2022-12-08T14:22:25.472Z,14.30
2022-12-08T14:25:57.413Z,9.57
2022-12-08T14:29:46.208Z,24.08
2022-12-08T14:33:18.444Z,7.33
2022-12-08T14:36:51.196Z,24.85
2022-12-08T14:40:35.103Z,7.93
2022-12-08T14:44:23.589Z,18.67
2022-12-08T14:47:55.845Z,20.60
2022-12-08T14:51:31.559Z,13.20
2022-12-08T14:55:07.312Z,22.80
2022-12-08T14:58:40.029Z,22.35
2022-12-08T15:02:25.553Z,25.25
2022-12-08T15:06:03.539Z,24.60
2022-12-08T15:09:39.040Z,19.33
2022-12-08T15:13:10.876Z,25.90
2022-12-08T15:16:43.978Z,21.00
2022-12-08T15:20:44.954Z,25.93
2022-12-08T15:24:17.589Z,25.23
2022-12-08T15:27:50.904Z,22.05
2022-12-08T15:31:22.800Z,23.83
2022-12-08T15:34:54.876Z,24.02
2022-12-08T15:38:31.229Z,22.52
2022-12-08T15:42:06.547Z,14.75
2022-12-08T15:45:40.718Z,17.17
2022-12-08T15:49:19.172Z,23.30
2022-12-08T15:52:51.058Z,15.77
2022-12-08T15:56:27.813Z,18.80
2022-12-08T16:00:00.125Z,12.38
2022-12-08T16:07:29.923Z,16.73
2022-12-08T16:19:04.900Z,11.57
2022-12-08T16:22:56.847Z,17.53
2022-12-08T16:27:35.144Z,18.15
2022-12-08T16:30:21.719Z,16.65
2022-12-08T16:33:54.034Z,18.97
2022-12-08T16:37:27.254Z,16.70
2022-12-08T16:41:18.005Z,15.93
2022-12-08T16:44:49.662Z,17.17
2022-12-08T16:48:22.558Z,21.20
2022-12-08T16:51:54.258Z,22.25
2022-12-08T16:55:26.713Z,21.33
2022-12-08T16:58:58.490Z,15.63
2022-12-08T17:02:30.604Z,21.10
2022-12-08T17:06:11.299Z,9.40
2022-12-08T17:09:43.802Z,18.97
2022-12-08T17:13:16.999Z,12.23
2022-12-08T17:16:49.073Z,17.35
2022-12-08T17:20:24.688Z,11.37
2022-12-08T17:23:56.701Z,17.13
2022-12-08T17:27:29.104Z,11.98
2022-12-08T17:31:03.008Z,16.13
2022-12-08T17:34:34.645Z,14.20
2022-12-08T17:38:06.866Z,12.80
2022-12-08T17:41:38.805Z,16.45
2022-12-08T17:45:11.114Z,13.97
2022-12-08T17:48:42.861Z,14.10
2022-12-08T17:52:14.953Z,12.18
2022-12-08T17:55:57.729Z,16.57
2022-12-08T17:59:30.588Z,16.50
2022-12-08T18:03:02.271Z,11.35
2022-12-08T18:06:36.612Z,16.08
2022-12-08T18:10:08.721Z,24.13
2022-12-08T18:13:41.474Z,19.95
2022-12-08T18:17:13.111Z,17.50
2022-12-08T18:20:46.620Z,19.57
2022-12-08T18:24:22.340Z,20.55
2022-12-08T18:27:54.412Z,27.27
2022-12-08T18:31:26.626Z,15.47
2022-12-08T18:34:59.743Z,21.25
2022-12-08T18:38:31.537Z,18.15
2022-12-08T18:42:22.954Z,15.50
2022-12-08T18:46:01.440Z,12.77
2022-12-08T18:49:33.457Z,11.57
2022-12-08T18:53:05.183Z,11.63
2022-12-08T18:56:37.381Z,8.90
2022-12-08T19:00:14.493Z,8.90
2022-12-08T19:04:05.153Z,5.57
2022-12-08T19:07:38.661Z,7.00
2022-12-08T19:11:22.901Z,6.53
2022-12-08T19:14:54.853Z,7.05
2022-12-08T19:18:26.994Z,6.00
2022-12-08T19:21:58.916Z,6.80
2022-12-08T19:25:31.449Z,7.22
2022-12-08T19:29:03.275Z,4.53
2022-12-08T19:32:35.329Z,5.43
2022-12-08T19:36:13.882Z,5.45
2022-12-08T19:40:04.827Z,6.47
2022-12-08T19:43:55.568Z,7.10
2022-12-08T19:47:28.040Z,5.38
2022-12-08T19:51:00.094Z,6.45
2022-12-08T19:54:32.250Z,5.80
2022-12-08T19:58:05.583Z,8.47
2022-12-08T20:01:38.778Z,7.68
2022-12-08T20:05:12.308Z,13.32
2022-12-08T20:08:50.180Z,6.87
2022-12-08T20:12:22.465Z,8.63
2022-12-08T20:15:55.255Z,14.63
2022-12-08T20:19:27.400Z,6.33
2022-12-08T20:23:00.126Z,19.42
2022-12-08T20:26:31.970Z,15.57
2022-12-08T20:30:04.438Z,11.48
2022-12-08T20:33:36.230Z,8.70
2022-12-08T20:37:08.929Z,12.55
2022-12-08T20:40:44.272Z,13.48
2022-12-08T20:44:16.532Z,13.60
2022-12-08T20:47:48.487Z,13.95
2022-12-08T20:51:20.565Z,11.13
2022-12-08T20:54:52.538Z,13.90
2022-12-08T20:58:24.683Z,10.95
2022-12-08T21:01:56.684Z,12.68
2022-12-08T21:05:29.005Z,12.10
2022-12-08T21:09:01.046Z,11.93
2022-12-08T21:12:33.690Z,12.93
2022-12-08T21:16:06.465Z,11.88
2022-12-08T21:19:38.623Z,17.87
2022-12-08T21:23:11.391Z,14.85
2022-12-08T21:26:44.765Z,12.65
2022-12-08T21:30:16.596Z,17.23
2022-12-08T21:33:49.223Z,17.35
2022-12-08T21:37:21.048Z,16.77
2022-12-08T21:40:53.047Z,13.48
2022-12-08T21:44:26.156Z,16.40
2022-12-08T21:48:00.471Z,17.25
2022-12-08T21:51:37.837Z,15.90
2022-12-08T21:55:12.562Z,14.20
2022-12-08T21:58:44.339Z,15.48
2022-12-08T22:02:20.956Z,18.63
2022-12-08T22:05:54.353Z,13.77
2022-12-08T22:09:26.626Z,16.65
2022-12-08T22:12:58.881Z,16.90
2022-12-08T22:16:31.110Z,15.63
2022-12-08T22:20:06.701Z,19.37
2022-12-08T22:23:39.226Z,14.13
2022-12-08T22:27:10.967Z,14.88
2022-12-08T22:30:43.219Z,12.63
2022-12-08T22:34:14.870Z,13.27
2022-12-08T22:37:50.356Z,17.27
2022-12-08T22:41:22.429Z,14.13
2022-12-08T22:44:54.666Z,17.52
2022-12-08T22:48:26.533Z,15.35
2022-12-08T22:52:02.687Z,16.23
2022-12-08T22:55:34.387Z,16.03
2022-12-08T22:59:06.659Z,15.80
2022-12-08T23:02:38.462Z,20.15
2022-12-08T23:06:14.227Z,14.90
2022-12-08T23:09:46.423Z,17.20
2022-12-08T23:13:19.282Z,15.88
2022-12-08T23:16:51.150Z,18.37
2022-12-08T23:20:23.382Z,18.58
2022-12-08T23:23:55.335Z,21.10
2022-12-08T23:27:27.924Z,19.27
2022-12-08T23:30:59.945Z,20.70
2022-12-08T23:34:32.158Z,19.55
2022-12-08T23:38:04.655Z,21.90
2022-12-08T23:41:37.064Z,19.57
2022-12-08T23:45:09.578Z,21.98
2022-12-08T23:48:42.148Z,17.83
2022-12-08T23:52:14.699Z,20.73
2022-12-08T23:55:46.935Z,20.50
2022-12-08T23:59:18.733Z,23.55
